createdAt,value
2018-07-15T00:00:32.361Z,0
2018-07-15T00:01:32.357Z,0
2018-07-15T00:02:32.350Z,0
2018-07-15T00:03:32.339Z,0
2018-07-15T00:04:32.362Z,0
2018-07-15T00:05:32.350Z,0
2018-07-15T00:06:32.077Z,0
2018-07-15T00:07:32.323Z,0
2018-07-15T00:08:32.370Z,0
2018-07-15T00:09:32.321Z,0
2018-07-15T00:10:32.080Z,0
2018-07-15T00:11:32.299Z,0
2018-07-15T00:12:32.298Z,0
2018-07-15T00:13:32.291Z,0
2018-07-15T00:14:32.036Z,0
2018-07-15T00:15:32.282Z,0
2018-07-15T00:16:32.287Z,0
2018-07-15T00:17:32.036Z,0
2018-07-15T00:18:32.274Z,0
2018-07-15T00:19:32.015Z,0
2018-07-15T00:20:32.012Z,0
2018-07-15T00:21:32.010Z,0
2018-07-15T00:22:32.250Z,0
2018-07-15T00:23:32.002Z,0
2018-07-15T00:24:32.251Z,0
2018-07-15T00:25:32.233Z,0
2018-07-15T00:26:32.228Z,0
2018-07-15T00:27:32.231Z,0
2018-07-15T00:28:32.220Z,0
2018-07-15T00:29:32.219Z,0
2018-07-15T00:30:32.206Z,0
2018-07-15T00:31:32.200Z,0
2018-07-15T00:32:32.212Z,0
2018-07-15T00:33:32.205Z,0
2018-07-15T00:34:31.957Z,0
2018-07-15T00:35:31.928Z,0
2018-07-15T00:36:32.185Z,0
2018-07-15T00:37:32.171Z,0
2018-07-15T00:38:32.165Z,0
2018-07-15T00:39:32.169Z,0
2018-07-15T00:40:32.163Z,0
2018-07-15T00:41:32.156Z,0
2018-07-15T00:42:32.149Z,0
2018-07-15T00:43:32.146Z,0
2018-07-15T00:44:31.914Z,0
2018-07-15T00:45:32.128Z,0
2018-07-15T00:46:32.137Z,0
2018-07-15T00:47:32.119Z,0
2018-07-15T00:48:31.858Z,0
2018-07-15T00:49:32.111Z,0
2018-07-15T00:50:32.103Z,0
2018-07-15T00:51:32.098Z,0
2018-07-15T00:52:32.094Z,0
2018-07-15T00:53:31.844Z,0
2018-07-15T00:54:32.085Z,0
2018-07-15T00:55:32.159Z,0
2018-07-15T00:56:32.074Z,0
2018-07-15T00:57:32.072Z,0
2018-07-15T00:58:32.071Z,0
2018-07-15T00:59:32.054Z,0
2018-07-15T01:00:31.803Z,0
2018-07-15T01:01:32.048Z,0
2018-07-15T01:02:32.051Z,0
2018-07-15T01:03:31.782Z,0
2018-07-15T01:04:32.027Z,0
2018-07-15T01:05:31.770Z,0
2018-07-15T01:06:31.762Z,0
2018-07-15T01:07:32.017Z,0
2018-07-15T01:08:32.008Z,0
2018-07-15T01:09:31.747Z,0
2018-07-15T01:10:31.999Z,0
2018-07-15T01:11:31.989Z,0
2018-07-15T01:12:31.734Z,0
2018-07-15T01:13:31.976Z,0
2018-07-15T01:14:31.722Z,0
2018-07-15T01:15:31.966Z,0
2018-07-15T01:16:31.965Z,0
2018-07-15T01:17:31.988Z,0
2018-07-15T01:18:31.949Z,0
2018-07-15T01:19:31.944Z,0
2018-07-15T01:20:31.941Z,0
2018-07-15T01:21:32.193Z,0
2018-07-15T01:22:31.944Z,0
2018-07-15T01:23:31.695Z,0
2018-07-15T01:24:31.669Z,0
2018-07-15T01:25:31.912Z,0
2018-07-15T01:26:31.404Z,0
2018-07-15T01:27:31.897Z,0
2018-07-15T01:28:31.897Z,0
2018-07-15T01:29:31.954Z,0
2018-07-15T01:30:31.884Z,0
2018-07-15T01:31:31.630Z,0
2018-07-15T01:32:31.871Z,0
2018-07-15T01:33:31.878Z,0
2018-07-15T01:34:31.861Z,0
2018-07-15T01:35:31.860Z,0
2018-07-15T01:36:31.905Z,0
2018-07-15T01:37:31.601Z,0
2018-07-15T01:38:31.587Z,0
2018-07-15T01:39:31.332Z,0
2018-07-15T01:40:31.581Z,0
2018-07-15T01:41:31.569Z,0
2018-07-15T01:42:31.564Z,0
2018-07-15T01:43:31.825Z,0
2018-07-15T01:44:31.823Z,0
2018-07-15T01:45:31.808Z,0
2018-07-15T01:46:31.793Z,0
2018-07-15T01:47:31.787Z,0
2018-07-15T01:48:31.531Z,0
2018-07-15T01:49:31.532Z,0
2018-07-15T01:50:31.769Z,0
2018-07-15T01:51:31.514Z,0
2018-07-15T01:52:32.010Z,0
2018-07-15T01:53:31.757Z,0
2018-07-15T01:54:31.498Z,0
2018-07-15T01:55:31.744Z,0
2018-07-15T01:56:31.491Z,0
2018-07-15T01:57:31.732Z,0
2018-07-15T01:58:31.479Z,0
2018-07-15T01:59:31.730Z,0
2018-07-15T02:00:31.720Z,0
2018-07-15T02:01:31.716Z,0
2018-07-15T02:02:31.706Z,0
2018-07-15T02:03:31.706Z,0
2018-07-15T02:04:31.188Z,0
2018-07-15T02:05:31.711Z,0
2018-07-15T02:06:31.434Z,0
2018-07-15T02:07:31.680Z,0
2018-07-15T02:08:31.669Z,0
2018-07-15T02:09:31.422Z,0
2018-07-15T02:10:31.663Z,0
2018-07-15T02:11:31.409Z,0
2018-07-15T02:12:31.400Z,4
2018-07-15T02:13:31.394Z,4
2018-07-15T02:14:31.389Z,4
2018-07-15T02:15:31.636Z,0
2018-07-15T02:16:31.632Z,0
2018-07-15T02:17:31.371Z,4
2018-07-15T02:18:31.622Z,4
2018-07-15T02:19:31.614Z,4
2018-07-15T02:20:31.612Z,4
2018-07-15T02:21:31.597Z,8
2018-07-15T02:22:31.089Z,4
2018-07-15T02:23:31.879Z,8
2018-07-15T02:24:31.378Z,8
2018-07-15T02:25:31.578Z,8
2018-07-15T02:26:31.571Z,12
2018-07-15T02:27:31.565Z,12
2018-07-15T02:28:31.557Z,12
2018-07-15T02:29:31.574Z,12
2018-07-15T02:30:31.550Z,12
2018-07-15T02:31:31.350Z,16
2018-07-15T02:32:31.541Z,20
2018-07-15T02:33:31.541Z,20
2018-07-15T02:34:31.272Z,24
2018-07-15T02:35:31.521Z,28
2018-07-15T02:36:31.571Z,32
2018-07-15T02:37:31.004Z,32
2018-07-15T02:38:31.510Z,36
2018-07-15T02:39:31.279Z,44
2018-07-15T02:40:31.487Z,44
2018-07-15T02:41:31.489Z,52
2018-07-15T02:42:31.229Z,56
2018-07-15T02:43:31.220Z,64
2018-07-15T02:44:30.969Z,72
2018-07-15T02:45:31.458Z,76
2018-07-15T02:46:31.466Z,88
2018-07-15T02:47:31.452Z,96
2018-07-15T02:48:31.191Z,104
2018-07-15T02:49:31.201Z,116
2018-07-15T02:50:31.189Z,128
2018-07-15T02:51:31.424Z,140
2018-07-15T02:52:31.172Z,148
2018-07-15T02:53:31.159Z,164
2018-07-15T02:54:31.162Z,180
2018-07-15T02:55:31.160Z,192
2018-07-15T02:56:31.140Z,208
2018-07-15T02:57:31.135Z,228
2018-07-15T02:58:31.383Z,248
2018-07-15T02:59:30.873Z,268
2018-07-15T03:00:31.127Z,288
2018-07-15T03:01:31.386Z,312
2018-07-15T03:02:31.112Z,336
2018-07-15T03:03:31.355Z,364
2018-07-15T03:04:31.104Z,392
2018-07-15T03:05:31.101Z,416
2018-07-15T03:06:31.336Z,448
2018-07-15T03:07:31.082Z,476
2018-07-15T03:08:31.082Z,508
2018-07-15T03:09:31.316Z,544
2018-07-15T03:10:31.338Z,580
2018-07-15T03:11:31.051Z,620
2018-07-15T03:12:31.315Z,660
2018-07-15T03:13:31.045Z,700
2018-07-15T03:14:31.294Z,736
2018-07-15T03:15:31.364Z,776
2018-07-15T03:16:31.036Z,820
2018-07-15T03:17:31.457Z,864
2018-07-15T03:18:30.761Z,912
2018-07-15T03:19:31.301Z,960
2018-07-15T03:20:31.007Z,1016
2018-07-15T03:21:31.004Z,1076
2018-07-15T03:22:31.003Z,1140
2018-07-15T03:23:31.242Z,1168
2018-07-15T03:24:30.988Z,1176
2018-07-15T03:25:30.968Z,1188
2018-07-15T03:26:31.215Z,1204
2018-07-15T03:27:31.224Z,1252
2018-07-15T03:28:30.949Z,1272
2018-07-15T03:29:31.202Z,1324
2018-07-15T03:30:31.208Z,1392
2018-07-15T03:31:31.190Z,1452
2018-07-15T03:32:30.681Z,1476
2018-07-15T03:33:31.184Z,1464
2018-07-15T03:34:31.180Z,1420
2018-07-15T03:35:30.669Z,1384
2018-07-15T03:36:31.160Z,1396
2018-07-15T03:37:31.158Z,1468
2018-07-15T03:38:31.145Z,1656
2018-07-15T03:39:31.147Z,1848
2018-07-15T03:40:30.886Z,1928
2018-07-15T03:41:30.879Z,1980
2018-07-15T03:42:30.873Z,2028
2018-07-15T03:43:31.127Z,2032
2018-07-15T03:44:30.860Z,2036
2018-07-15T03:45:31.108Z,2096
2018-07-15T03:46:31.114Z,2208
2018-07-15T03:47:30.847Z,2320
2018-07-15T03:48:30.841Z,2520
2018-07-15T03:49:30.834Z,3036
2018-07-15T03:50:30.828Z,2912
2018-07-15T03:51:30.822Z,2896
2018-07-15T03:52:31.072Z,2776
2018-07-15T03:53:30.818Z,2488
2018-07-15T03:54:30.555Z,2380
2018-07-15T03:55:30.813Z,2472
2018-07-15T03:56:30.797Z,2772
2018-07-15T03:57:31.319Z,2932
2018-07-15T03:58:30.786Z,3032
2018-07-15T03:59:31.054Z,3200
2018-07-15T04:00:31.034Z,3324
2018-07-15T04:01:30.772Z,3456
2018-07-15T04:02:31.020Z,3616
2018-07-15T04:03:30.764Z,3860
2018-07-15T04:04:30.508Z,4168
2018-07-15T04:05:30.755Z,4444
2018-07-15T04:06:30.498Z,4420
2018-07-15T04:07:31.005Z,4328
2018-07-15T04:08:30.600Z,4224
2018-07-15T04:09:30.745Z,4416
2018-07-15T04:10:30.739Z,4540
2018-07-15T04:11:30.728Z,4436
2018-07-15T04:12:30.987Z,4260
2018-07-15T04:13:30.969Z,4212
2018-07-15T04:14:30.717Z,4296
2018-07-15T04:15:30.709Z,4448
2018-07-15T04:16:30.959Z,4608
2018-07-15T04:17:30.949Z,4640
2018-07-15T04:18:30.951Z,4476
2018-07-15T04:19:30.946Z,4636
2018-07-15T04:20:30.688Z,5512
2018-07-15T04:21:30.687Z,4740
2018-07-15T04:22:30.933Z,4700
2018-07-15T04:23:30.938Z,4932
2018-07-15T04:24:30.931Z,4936
2018-07-15T04:25:30.165Z,5204
2018-07-15T04:26:30.923Z,5744
2018-07-15T04:27:30.924Z,5804
2018-07-15T04:28:31.352Z,6412
2018-07-15T04:29:30.655Z,6404
2018-07-15T04:30:30.646Z,8984
2018-07-15T04:31:30.400Z,11624
2018-07-15T04:32:30.390Z,11888
2018-07-15T04:33:30.387Z,10896
2018-07-15T04:34:30.639Z,7112
2018-07-15T04:35:30.636Z,6864
2018-07-15T04:36:30.632Z,7100
2018-07-15T04:37:30.625Z,6952
2018-07-15T04:38:30.628Z,6528
2018-07-15T04:39:30.623Z,5788
2018-07-15T04:40:30.889Z,5552
2018-07-15T04:41:30.633Z,5080
2018-07-15T04:42:30.862Z,5048
2018-07-15T04:43:30.940Z,5280
2018-07-15T04:44:30.363Z,5840
2018-07-15T04:45:30.367Z,6528
2018-07-15T04:46:30.862Z,7556
2018-07-15T04:47:30.604Z,8916
2018-07-15T04:48:30.600Z,9972
2018-07-15T04:49:30.848Z,12512
2018-07-15T04:50:30.627Z,10652
2018-07-15T04:51:30.848Z,10996
2018-07-15T04:52:30.852Z,13056
2018-07-15T04:53:30.588Z,19904
2018-07-15T04:54:30.614Z,17280
2018-07-15T04:55:30.838Z,10236
2018-07-15T04:56:30.585Z,10368
2018-07-15T04:57:30.586Z,10424
2018-07-15T04:58:30.845Z,10832
2018-07-15T04:59:30.874Z,12252
2018-07-15T05:00:30.837Z,13112
2018-07-15T05:01:30.825Z,14488
2018-07-15T05:02:30.830Z,24512
2018-07-15T05:03:30.828Z,19904
2018-07-15T05:04:30.827Z,24800
2018-07-15T05:05:30.835Z,12404
2018-07-15T05:06:30.571Z,21344
2018-07-15T05:07:30.828Z,15100
2018-07-15T05:09:30.325Z,25216
2018-07-15T05:10:30.325Z,24480
2018-07-15T05:11:30.706Z,26464
2018-07-15T05:12:30.838Z,22496
2018-07-15T05:13:30.839Z,21728
2018-07-15T05:14:30.597Z,23232
2018-07-15T05:15:30.841Z,25408
2018-07-15T05:16:30.847Z,25280
2018-07-15T05:17:30.595Z,24352
2018-07-15T05:18:31.099Z,27872
2018-07-15T05:19:30.604Z,29280
2018-07-15T05:20:30.915Z,21088
2018-07-15T05:21:30.872Z,28736
2018-07-15T05:22:30.621Z,30496
2018-07-15T05:23:30.623Z,27232
2018-07-15T05:24:30.377Z,27552
2018-07-15T05:25:30.893Z,25856
2018-07-15T05:26:30.891Z,31296
2018-07-15T05:27:30.899Z,28608
2018-07-15T05:28:30.909Z,23616
2018-07-15T05:29:30.409Z,28544
2018-07-15T05:30:31.170Z,30464
2018-07-15T05:31:30.927Z,31520
2018-07-15T05:32:30.683Z,29920
2018-07-15T05:33:30.954Z,30272
2018-07-15T05:34:30.452Z,28544
2018-07-15T05:35:30.708Z,30496
2018-07-15T05:36:30.464Z,33216
2018-07-15T05:37:30.978Z,33920
2018-07-15T05:38:30.733Z,32704
2018-07-15T05:39:31.005Z,33312
2018-07-15T05:40:31.010Z,34176
2018-07-15T05:41:30.801Z,33568
2018-07-15T05:42:30.773Z,32992
2018-07-15T05:43:31.046Z,34016
2018-07-15T05:44:31.244Z,34336
2018-07-15T05:45:31.060Z,36064
2018-07-15T05:46:31.062Z,35552
2018-07-15T05:47:31.073Z,34176
2018-07-15T05:48:30.833Z,31424
2018-07-15T05:49:31.099Z,23200
2018-07-15T05:50:30.861Z,30400
2018-07-15T05:51:31.118Z,33664
2018-07-15T05:52:30.883Z,31040
2018-07-15T05:53:31.136Z,29824
2018-07-15T05:54:30.899Z,34752
2018-07-15T05:55:30.915Z,36800
2018-07-15T05:56:31.176Z,34656
2018-07-15T05:57:31.188Z,31296
2018-07-15T05:58:31.202Z,32512
2018-07-15T05:59:31.210Z,36064
2018-07-15T06:00:31.221Z,36608
2018-07-15T06:01:44.228Z,34240
2018-07-15T06:02:30.994Z,32096
2018-07-15T06:03:31.442Z,32768
2018-07-15T06:04:31.036Z,36384
2018-07-15T06:05:31.031Z,39040
2018-07-15T06:06:31.288Z,38144
2018-07-15T06:07:31.306Z,35648
2018-07-15T06:08:31.062Z,36416
2018-07-15T06:09:31.084Z,40608
2018-07-15T06:10:31.344Z,43456
2018-07-15T06:11:31.113Z,42272
2018-07-15T06:12:30.857Z,41536
2018-07-15T06:13:31.373Z,42976
2018-07-15T06:14:30.883Z,42816
2018-07-15T06:15:31.406Z,39456
2018-07-15T06:16:31.413Z,36960
2018-07-15T06:17:31.425Z,38048
2018-07-15T06:18:31.190Z,39456
2018-07-15T06:19:30.694Z,37536
2018-07-15T06:20:31.466Z,34816
2018-07-15T06:21:31.475Z,37088
2018-07-15T06:22:31.258Z,39456
2018-07-15T06:23:31.548Z,36000
2018-07-15T06:24:31.006Z,31040
2018-07-15T06:25:31.528Z,28576
2018-07-15T06:26:31.286Z,29152
2018-07-15T06:27:31.047Z,30944
2018-07-15T06:28:31.561Z,32160
2018-07-15T06:29:31.658Z,32512
2018-07-15T06:30:31.646Z,32320
2018-07-15T06:31:31.617Z,30880
2018-07-15T06:32:34.353Z,27648
2018-07-15T06:33:31.627Z,25344
2018-07-15T06:34:31.650Z,23776
2018-07-15T06:35:31.405Z,21600
2018-07-15T06:36:31.675Z,19264
2018-07-15T06:37:31.691Z,17376
2018-07-15T06:38:31.698Z,18336
2018-07-15T06:39:31.461Z,24320
2018-07-15T06:40:31.733Z,33568
2018-07-15T06:41:31.744Z,41984
2018-07-15T06:42:31.755Z,47968
2018-07-15T06:43:31.764Z,51552
2018-07-15T06:44:31.780Z,49184
2018-07-15T06:45:31.815Z,45376
2018-07-15T06:46:33.085Z,43520
2018-07-15T06:47:31.567Z,42624
2018-07-15T06:48:31.329Z,42496
2018-07-15T06:49:31.610Z,44608
2018-07-15T06:50:32.467Z,48512
2018-07-15T06:51:31.646Z,51392
2018-07-15T06:52:31.889Z,56288
2018-07-15T06:53:31.921Z,57664
2018-07-15T06:54:31.666Z,67168
2018-07-15T06:55:31.943Z,65056
2018-07-15T06:56:31.949Z,61024
2018-07-15T06:57:31.955Z,60000
2018-07-15T06:58:31.982Z,60096
2018-07-15T06:59:31.480Z,61184
2018-07-15T07:00:32.010Z,59456
2018-07-15T07:01:31.972Z,61696
2018-07-15T07:02:32.041Z,11736
2018-07-15T07:03:32.294Z,55456
2018-07-15T07:04:32.076Z,48992
2018-07-15T07:05:32.074Z,11724
2018-07-15T07:06:32.096Z,68352
2018-07-15T07:07:32.528Z,77088
2018-07-15T07:08:32.113Z,66048
2018-07-15T07:09:31.874Z,88320
2018-07-15T07:10:31.890Z,96704
2018-07-15T07:11:32.154Z,102880
2018-07-15T07:12:31.913Z,101600
2018-07-15T07:13:32.176Z,91200
2018-07-15T07:14:31.956Z,77760
2018-07-15T07:15:32.207Z,64320
2018-07-15T07:16:31.957Z,59008
2018-07-15T07:17:32.234Z,58080
2018-07-15T07:18:32.237Z,65536
2018-07-15T07:19:32.004Z,77216
2018-07-15T07:20:32.256Z,89664
2018-07-15T07:21:32.279Z,95392
2018-07-15T07:22:31.785Z,89728
2018-07-15T07:23:32.058Z,80928
2018-07-15T07:24:32.316Z,79776
2018-07-15T07:25:32.333Z,74912
2018-07-15T07:26:32.090Z,62816
2018-07-15T07:27:32.103Z,49504
2018-07-15T07:28:32.123Z,39552
2018-07-15T07:29:32.380Z,40768
2018-07-15T07:30:32.137Z,43072
2018-07-15T07:31:31.897Z,41792
2018-07-15T07:32:32.417Z,43872
2018-07-15T07:33:32.425Z,44352
2018-07-15T07:34:32.271Z,47200
2018-07-15T07:35:32.486Z,45440
2018-07-15T07:36:32.476Z,46016
2018-07-15T07:37:31.971Z,48768
2018-07-15T07:38:32.491Z,44384
2018-07-15T07:39:32.252Z,36704
2018-07-15T07:40:32.515Z,31040
2018-07-15T07:41:32.682Z,26272
2018-07-15T07:42:32.538Z,21696
2018-07-15T07:43:32.557Z,17024
2018-07-15T07:44:32.581Z,14848
2018-07-15T07:45:32.597Z,16768
2018-07-15T07:46:32.595Z,19488
2018-07-15T07:47:32.597Z,20768
2018-07-15T07:48:32.616Z,20800
2018-07-15T07:49:32.624Z,21248
2018-07-15T07:50:32.384Z,22304
2018-07-15T07:51:32.642Z,24032
2018-07-15T07:52:32.414Z,27200
2018-07-15T07:53:32.794Z,28672
2018-07-15T07:54:32.184Z,30880
2018-07-15T07:55:32.708Z,31200
2018-07-15T07:56:32.712Z,36000
2018-07-15T07:57:32.726Z,12892
2018-07-15T07:58:32.722Z,37568
2018-07-15T07:59:32.509Z,38752
2018-07-15T08:00:32.753Z,42080
2018-07-15T08:01:32.766Z,20416
2018-07-15T08:02:32.778Z,21408
2018-07-15T08:03:32.034Z,39456
2018-07-15T08:04:32.546Z,52832
2018-07-15T08:05:32.820Z,57568
2018-07-15T08:06:33.091Z,53632
2018-07-15T08:07:32.609Z,48000
2018-07-15T08:08:32.850Z,45056
2018-07-15T08:09:32.633Z,25920
2018-07-15T08:10:32.622Z,21824
2018-07-15T08:11:32.645Z,31872
2018-07-15T08:12:32.901Z,47424
2018-07-15T08:13:32.908Z,12796
2018-07-15T08:14:32.921Z,13944
2018-07-15T08:15:32.940Z,59072
2018-07-15T08:16:32.939Z,14680
2018-07-15T08:17:32.699Z,63040
2018-07-15T08:18:32.977Z,18560
2018-07-15T08:19:32.472Z,24832
2018-07-15T08:20:32.738Z,72096
2018-07-15T08:21:33.005Z,72480
2018-07-15T08:22:33.219Z,70272
2018-07-15T08:23:33.018Z,68704
2018-07-15T08:24:33.032Z,68800
2018-07-15T08:25:33.047Z,77632
2018-07-15T08:26:33.051Z,87232
2018-07-15T08:27:33.065Z,97472
2018-07-15T08:28:33.452Z,97792
2018-07-15T08:29:32.841Z,91968
2018-07-15T08:30:32.841Z,81536
2018-07-15T08:31:33.123Z,74240
2018-07-15T08:32:33.133Z,68224
2018-07-15T08:33:33.136Z,70656
2018-07-15T08:34:33.146Z,80032
2018-07-15T08:35:33.160Z,85120
2018-07-15T08:36:33.165Z,86240
2018-07-15T08:37:33.174Z,84928
2018-07-15T08:38:33.201Z,80512
2018-07-15T08:39:32.945Z,58112
2018-07-15T08:40:32.970Z,67200
2018-07-15T08:41:33.238Z,66752
2018-07-15T08:42:33.010Z,71648
2018-07-15T08:43:33.249Z,77984
2018-07-15T08:44:33.262Z,84224
2018-07-15T08:45:33.275Z,93984
2018-07-15T08:46:33.032Z,98592
2018-07-15T08:47:33.302Z,94240
2018-07-15T08:48:33.320Z,82752
2018-07-15T08:49:33.075Z,76768
2018-07-15T08:50:33.085Z,79392
2018-07-15T08:51:33.345Z,87008
2018-07-15T08:52:33.368Z,88192
2018-07-15T08:53:33.372Z,82080
2018-07-15T08:54:32.916Z,72064
2018-07-15T08:55:33.149Z,71424
2018-07-15T08:56:33.423Z,86368
2018-07-15T08:57:33.193Z,98848
2018-07-15T08:58:33.441Z,97504
2018-07-15T08:59:33.452Z,71136
2018-07-15T09:00:33.208Z,25824
2018-07-15T09:01:33.477Z,7324
2018-07-15T09:02:33.248Z,7376
2018-07-15T09:03:33.739Z,7544
2018-07-15T09:04:33.509Z,7440
2018-07-15T09:05:33.523Z,7196
2018-07-15T09:06:33.540Z,7508
2018-07-15T09:07:33.289Z,6944
2018-07-15T09:08:33.819Z,6824
2018-07-15T09:09:33.056Z,6660
2018-07-15T09:10:33.574Z,6588
2018-07-15T09:11:33.579Z,6712
2018-07-15T09:12:33.741Z,6936
2018-07-15T09:13:33.362Z,6596
2018-07-15T09:14:33.347Z,6788
2018-07-15T09:15:33.609Z,6652
2018-07-15T09:16:33.111Z,6408
2018-07-15T09:17:33.636Z,6292
2018-07-15T09:18:33.638Z,6268
2018-07-15T09:19:33.400Z,6204
2018-07-15T09:20:33.638Z,6108
2018-07-15T09:21:33.648Z,6072
2018-07-15T09:22:33.658Z,6072
2018-07-15T09:23:33.662Z,6068
2018-07-15T09:24:33.676Z,6048
2018-07-15T09:25:33.666Z,6048
2018-07-15T09:26:33.465Z,6016
2018-07-15T09:27:33.672Z,5968
2018-07-15T09:28:33.692Z,5952
2018-07-15T09:29:33.437Z,5944
2018-07-15T09:30:33.440Z,5952
2018-07-15T09:31:33.693Z,5892
2018-07-15T09:32:33.692Z,5844
2018-07-15T09:33:33.705Z,5832
2018-07-15T09:34:33.197Z,5824
2018-07-15T09:35:34.006Z,5788
2018-07-15T09:36:33.702Z,5744
2018-07-15T09:37:33.704Z,5708
2018-07-15T09:38:33.449Z,5688
2018-07-15T09:39:33.955Z,5668
2018-07-15T09:40:33.462Z,5640
2018-07-15T09:41:33.708Z,5632
2018-07-15T09:42:33.464Z,5616
2018-07-15T09:43:33.744Z,5572
2018-07-15T09:44:33.668Z,5580
2018-07-15T09:45:33.718Z,5584
2018-07-15T09:46:33.465Z,5548
2018-07-15T09:47:33.486Z,5508
2018-07-15T09:48:33.712Z,5460
2018-07-15T09:49:33.466Z,5440
2018-07-15T09:50:33.730Z,5424
2018-07-15T09:51:33.720Z,5444
2018-07-15T09:52:33.467Z,5472
2018-07-15T09:53:33.724Z,5480
2018-07-15T09:54:33.498Z,5496
2018-07-15T09:55:33.741Z,5488
2018-07-15T09:56:33.752Z,5500
2018-07-15T09:57:33.727Z,5508
2018-07-15T09:58:33.586Z,5472
2018-07-15T09:59:33.748Z,5416
2018-07-15T10:00:33.744Z,5400
2018-07-15T10:01:33.251Z,5428
2018-07-15T10:02:33.485Z,5440
2018-07-15T10:03:33.735Z,5428
2018-07-15T10:04:33.751Z,5440
2018-07-15T10:05:33.744Z,5440
2018-07-15T10:06:33.737Z,5444
2018-07-15T10:07:33.920Z,5480
2018-07-15T10:08:33.761Z,5556
2018-07-15T10:09:33.938Z,5612
2018-07-15T10:10:34.100Z,5472
2018-07-15T10:11:33.739Z,5396
2018-07-15T10:12:33.749Z,5336
2018-07-15T10:13:33.740Z,5268
2018-07-15T10:14:33.500Z,5232
2018-07-15T10:15:33.490Z,5236
2018-07-15T10:16:33.489Z,5204
2018-07-15T10:17:33.236Z,5192
2018-07-15T10:18:33.739Z,5188
2018-07-15T10:19:33.489Z,5204
2018-07-15T10:20:33.495Z,5188
2018-07-15T10:21:33.240Z,5188
2018-07-15T10:22:33.746Z,5220
2018-07-15T10:23:33.756Z,5208
2018-07-15T10:24:33.751Z,5192
2018-07-15T10:25:33.740Z,5168
2018-07-15T10:26:33.867Z,5164
2018-07-15T10:27:33.754Z,5192
2018-07-15T10:28:33.497Z,5184
2018-07-15T10:29:33.503Z,5196
2018-07-15T10:30:33.748Z,5196
2018-07-15T10:31:33.499Z,5164
2018-07-15T10:32:33.494Z,5124
2018-07-15T10:33:33.752Z,5112
2018-07-15T10:34:33.251Z,5156
2018-07-15T10:35:33.750Z,5176
2018-07-15T10:36:33.766Z,5204
2018-07-15T10:37:33.759Z,5232
2018-07-15T10:38:33.765Z,5376
2018-07-15T10:39:33.508Z,5764
2018-07-15T10:40:33.752Z,6116
2018-07-15T10:41:34.009Z,6320
2018-07-15T10:42:33.753Z,6268
2018-07-15T10:43:33.749Z,6056
2018-07-15T10:44:33.944Z,6204
2018-07-15T10:45:33.753Z,6392
2018-07-15T10:46:33.769Z,6840
2018-07-15T10:47:33.251Z,7184
2018-07-15T10:48:33.761Z,7076
2018-07-15T10:49:33.766Z,6080
2018-07-15T10:50:33.761Z,5676
2018-07-15T10:51:33.795Z,5348
2018-07-15T10:52:33.822Z,5112
2018-07-15T10:53:33.758Z,5100
2018-07-15T10:54:33.510Z,5128
2018-07-15T10:55:33.507Z,5092
2018-07-15T10:56:34.265Z,5112
2018-07-15T10:57:33.793Z,5172
2018-07-15T10:58:33.763Z,5196
2018-07-15T10:59:33.772Z,5184
2018-07-15T11:00:33.518Z,5204
2018-07-15T11:01:33.513Z,5228
2018-07-15T11:02:33.774Z,5172
2018-07-15T11:03:33.529Z,5136
2018-07-15T11:04:33.774Z,5124
2018-07-15T11:05:33.785Z,5072
2018-07-15T11:06:33.692Z,5192
2018-07-15T11:07:33.772Z,5052
2018-07-15T11:08:33.523Z,4772
2018-07-15T11:09:33.778Z,4676
2018-07-15T11:10:33.526Z,4620
2018-07-15T11:11:33.777Z,4580
2018-07-15T11:12:33.532Z,4540
2018-07-15T11:13:34.182Z,4508
2018-07-15T11:14:33.541Z,4492
2018-07-15T11:15:33.687Z,4480
2018-07-15T11:16:33.717Z,4472
2018-07-15T11:17:33.779Z,4452
2018-07-15T11:18:33.800Z,4432
2018-07-15T11:19:33.793Z,4420
2018-07-15T11:20:33.539Z,4408
2018-07-15T11:21:33.534Z,4408
2018-07-15T11:22:33.800Z,4416
2018-07-15T11:23:33.792Z,4436
2018-07-15T11:24:33.793Z,4452
2018-07-15T11:25:33.538Z,4468
2018-07-15T11:26:33.800Z,4504
2018-07-15T11:27:33.543Z,4556
2018-07-15T11:28:33.810Z,4600
2018-07-15T11:29:33.554Z,4604
2018-07-15T11:30:33.813Z,4584
2018-07-15T11:31:34.147Z,4576
2018-07-15T11:32:33.801Z,4576
2018-07-15T11:33:33.809Z,4556
2018-07-15T11:34:33.805Z,4540
2018-07-15T11:35:33.564Z,4564
2018-07-15T11:36:33.801Z,4600
2018-07-15T11:37:33.817Z,4632
2018-07-15T11:38:33.808Z,4752
2018-07-15T11:39:33.807Z,4812
2018-07-15T11:40:33.308Z,4736
2018-07-15T11:41:33.814Z,4672
2018-07-15T11:42:33.819Z,4584
2018-07-15T11:43:33.820Z,4564
2018-07-15T11:44:33.311Z,4524
2018-07-15T11:45:33.821Z,4500
2018-07-15T11:46:33.817Z,4452
2018-07-15T11:47:33.842Z,4404
2018-07-15T11:48:33.816Z,4392
2018-07-15T11:49:33.570Z,4368
2018-07-15T11:50:33.820Z,4340
2018-07-15T11:51:33.571Z,4324
2018-07-15T11:52:33.834Z,4312
2018-07-15T11:53:33.569Z,4280
2018-07-15T11:54:34.140Z,4264
2018-07-15T11:55:33.576Z,4300
2018-07-15T11:56:33.827Z,4316
2018-07-15T11:57:33.320Z,4292
2018-07-15T11:58:33.827Z,4304
2018-07-15T11:59:33.843Z,4328
2018-07-15T12:00:33.859Z,4332
2018-07-15T12:01:33.910Z,4312
2018-07-15T12:02:33.842Z,4284
2018-07-15T12:03:33.833Z,4284
2018-07-15T12:04:33.833Z,4272
2018-07-15T12:05:33.835Z,4292
2018-07-15T12:06:33.340Z,4304
2018-07-15T12:07:33.836Z,4336
2018-07-15T12:08:33.330Z,4384
2018-07-15T12:09:33.596Z,4428
2018-07-15T12:10:33.844Z,4456
2018-07-15T12:11:33.587Z,4412
2018-07-15T12:12:33.587Z,4448
2018-07-15T12:13:33.590Z,4404
2018-07-15T12:14:33.838Z,4344
2018-07-15T12:15:33.864Z,4344
2018-07-15T12:16:33.603Z,4360
2018-07-15T12:17:33.912Z,4312
2018-07-15T12:18:33.839Z,4268
2018-07-15T12:19:33.856Z,4256
2018-07-15T12:20:33.708Z,4296
2018-07-15T12:21:33.625Z,4344
2018-07-15T12:22:33.595Z,4412
2018-07-15T12:23:33.847Z,4388
2018-07-15T12:24:33.847Z,4276
2018-07-15T12:25:33.848Z,4180
2018-07-15T12:26:33.850Z,4128
2018-07-15T12:27:33.848Z,4088
2018-07-15T12:28:33.866Z,4100
2018-07-15T12:29:33.881Z,4084
2018-07-15T12:30:33.597Z,4048
2018-07-15T12:31:33.870Z,4032
2018-07-15T12:32:33.611Z,4040
2018-07-15T12:33:33.347Z,4112
2018-07-15T12:34:33.348Z,4184
2018-07-15T12:35:33.864Z,4152
2018-07-15T12:36:33.861Z,4168
2018-07-15T12:37:33.859Z,4132
2018-07-15T12:38:33.865Z,4216
2018-07-15T12:39:33.861Z,4096
2018-07-15T12:40:33.603Z,3996
2018-07-15T12:41:33.856Z,3948
2018-07-15T12:42:33.354Z,3936
2018-07-15T12:43:34.192Z,3920
2018-07-15T12:44:33.109Z,3904
2018-07-15T12:45:33.610Z,3880
2018-07-15T12:46:34.112Z,3868
2018-07-15T12:47:33.881Z,3860
2018-07-15T12:48:33.883Z,3852
2018-07-15T12:49:33.871Z,3840
2018-07-15T12:50:33.871Z,3820
2018-07-15T12:51:33.630Z,3820
2018-07-15T12:52:33.866Z,3828
2018-07-15T12:53:33.628Z,3828
2018-07-15T12:54:33.866Z,3816
2018-07-15T12:55:33.869Z,3808
2018-07-15T12:56:33.620Z,3820
2018-07-15T12:57:33.875Z,3840
2018-07-15T12:58:33.622Z,3852
2018-07-15T12:59:33.366Z,3840
2018-07-15T13:00:33.870Z,3820
2018-07-15T13:01:33.882Z,3812
2018-07-15T13:02:33.894Z,3812
2018-07-15T13:03:33.625Z,3832
2018-07-15T13:04:33.625Z,3868
2018-07-15T13:05:33.891Z,3856
2018-07-15T13:06:33.375Z,3836
2018-07-15T13:07:34.006Z,3848
2018-07-15T13:08:33.383Z,3892
2018-07-15T13:09:33.383Z,3908
2018-07-15T13:10:33.881Z,3872
2018-07-15T13:11:34.285Z,3856
2018-07-15T13:12:33.641Z,3852
2018-07-15T13:13:33.645Z,3848
2018-07-15T13:14:33.899Z,3864
2018-07-15T13:15:33.887Z,3888
2018-07-15T13:16:34.037Z,3892
2018-07-15T13:17:34.140Z,3892
2018-07-15T13:18:33.890Z,3908
2018-07-15T13:19:33.648Z,4024
2018-07-15T13:20:33.922Z,4016
2018-07-15T13:21:33.893Z,3880
2018-07-15T13:22:33.911Z,3844
2018-07-15T13:23:33.891Z,3832
2018-07-15T13:24:33.644Z,3824
2018-07-15T13:25:33.897Z,3852
2018-07-15T13:26:33.390Z,3860
2018-07-15T13:27:33.898Z,3800
2018-07-15T13:28:33.897Z,3648